sensor_id;sensor_type;location;lat;lon;timestamp;temperature;humidity
33673;DHT22;20011;51.510;9.942;2023-04-24T00:02:25;13.60;99.90
33673;DHT22;20011;51.510;9.942;2023-04-24T00:04:52;13.50;99.90
33673;DHT22;20011;51.510;9.942;2023-04-24T00:07:19;13.50;99.90
33673;DHT22;20011;51.510;9.942;2023-04-24T00:09:46;13.50;99.90
33673;DHT22;20011;51.510;9.942;2023-04-24T00:12:13;13.60;99.90
33673;DHT22;20011;51.510;9.942;2023-04-24T00:14:40;13.60;99.90
33673;DHT22;20011;51.510;9.942;2023-04-24T00:17:07;13.60;99.90
33673;DHT22;20011;51.510;9.942;2023-04-24T00:19:34;13.60;99.90
33673;DHT22;20011;51.510;9.942;2023-04-24T00:22:02;13.60;99.90
33673;DHT22;20011;51.510;9.942;2023-04-24T00:24:29;13.60;99.90
33673;DHT22;20011;51.510;9.942;2023-04-24T00:26:56;13.60;99.90
33673;DHT22;20011;51.510;9.942;2023-04-24T00:29:23;13.60;99.90
33673;DHT22;20011;51.510;9.942;2023-04-24T00:31:50;13.60;99.90
33673;DHT22;20011;51.510;9.942;2023-04-24T00:34:17;13.60;99.90
33673;DHT22;20011;51.510;9.942;2023-04-24T00:36:46;13.60;99.90
33673;DHT22;20011;51.510;9.942;2023-04-24T00:39:13;13.50;99.90
33673;DHT22;20011;51.510;9.942;2023-04-24T00:41:39;13.60;99.90
33673;DHT22;20011;51.510;9.942;2023-04-24T00:44:06;13.50;99.90
33673;DHT22;20011;51.510;9.942;2023-04-24T00:46:34;13.50;99.90
33673;DHT22;20011;51.510;9.942;2023-04-24T00:49:02;13.50;99.90
33673;DHT22;20011;51.510;9.942;2023-04-24T00:51:31;13.60;99.90
33673;DHT22;20011;51.510;9.942;2023-04-24T00:54:00;13.60;99.90
33673;DHT22;20011;51.510;9.942;2023-04-24T00:56:28;13.60;99.90
33673;DHT22;20011;51.510;9.942;2023-04-24T00:58:55;13.50;99.90
33673;DHT22;20011;51.510;9.942;2023-04-24T01:03:51;13.50;99.90
33673;DHT22;20011;51.510;9.942;2023-04-24T01:06:18;13.40;99.90
33673;DHT22;20011;51.510;9.942;2023-04-24T01:08:46;13.40;99.90
33673;DHT22;20011;51.510;9.942;2023-04-24T01:11:14;13.40;99.90
33673;DHT22;20011;51.510;9.942;2023-04-24T01:13:41;13.40;99.90
33673;DHT22;20011;51.510;9.942;2023-04-24T01:16:09;13.30;99.90
33673;DHT22;20011;51.510;9.942;2023-04-24T01:18:37;13.30;99.90
33673;DHT22;20011;51.510;9.942;2023-04-24T01:21:06;13.30;99.90
33673;DHT22;20011;51.510;9.942;2023-04-24T01:23:34;13.20;99.90
33673;DHT22;20011;51.510;9.942;2023-04-24T01:26:01;13.20;99.90
33673;DHT22;20011;51.510;9.942;2023-04-24T01:28:28;13.20;99.90
33673;DHT22;20011;51.510;9.942;2023-04-24T01:30:57;13.20;99.90
33673;DHT22;20011;51.510;9.942;2023-04-24T01:33:24;13.10;99.90
33673;DHT22;20011;51.510;9.942;2023-04-24T01:35:51;13.10;99.90
33673;DHT22;20011;51.510;9.942;2023-04-24T01:38:18;13.10;99.90
33673;DHT22;20011;51.510;9.942;2023-04-24T01:40:45;13.10;99.90
33673;DHT22;20011;51.510;9.942;2023-04-24T01:43:13;13.10;99.90
33673;DHT22;20011;51.510;9.942;2023-04-24T01:45:39;13.10;99.90
33673;DHT22;20011;51.510;9.942;2023-04-24T01:48:06;13.10;99.90
33673;DHT22;20011;51.510;9.942;2023-04-24T01:50:35;13.00;99.90
33673;DHT22;20011;51.510;9.942;2023-04-24T01:53:02;13.00;99.90
33673;DHT22;20011;51.510;9.942;2023-04-24T01:55:29;13.00;99.90
33673;DHT22;20011;51.510;9.942;2023-04-24T01:57:56;13.00;99.90
33673;DHT22;20011;51.510;9.942;2023-04-24T02:00:26;12.90;99.90
33673;DHT22;20011;51.510;9.942;2023-04-24T02:02:53;13.00;99.90
33673;DHT22;20011;51.510;9.942;2023-04-24T02:05:20;13.00;99.90
33673;DHT22;20011;51.510;9.942;2023-04-24T02:07:47;12.90;99.90
33673;DHT22;20011;51.510;9.942;2023-04-24T02:10:14;12.90;99.90
33673;DHT22;20011;51.510;9.942;2023-04-24T02:12:41;12.90;99.90
33673;DHT22;20011;51.510;9.942;2023-04-24T02:15:09;12.90;99.90
33673;DHT22;20011;51.510;9.942;2023-04-24T02:17:37;12.80;99.90
33673;DHT22;20011;51.510;9.942;2023-04-24T02:20:07;12.80;99.90
33673;DHT22;20011;51.510;9.942;2023-04-24T02:22:34;12.80;99.90
33673;DHT22;20011;51.510;9.942;2023-04-24T02:25:01;12.80;99.90
33673;DHT22;20011;51.510;9.942;2023-04-24T02:27:28;12.70;99.90
33673;DHT22;20011;51.510;9.942;2023-04-24T02:29:56;12.80;99.90
33673;DHT22;20011;51.510;9.942;2023-04-24T02:34:50;12.70;99.90
33673;DHT22;20011;51.510;9.942;2023-04-24T02:37:17;12.70;99.90
33673;DHT22;20011;51.510;9.942;2023-04-24T02:39:44;12.70;99.90
33673;DHT22;20011;51.510;9.942;2023-04-24T02:42:11;12.70;99.90
33673;DHT22;20011;51.510;9.942;2023-04-24T02:44:38;12.70;99.90
33673;DHT22;20011;51.510;9.942;2023-04-24T02:51:59;12.70;99.90
33673;DHT22;20011;51.510;9.942;2023-04-24T02:54:26;12.80;99.90
33673;DHT22;20011;51.510;9.942;2023-04-24T02:56:53;12.80;99.90
33673;DHT22;20011;51.510;9.942;2023-04-24T03:02:49;12.90;99.90
33673;DHT22;20011;51.510;9.942;2023-04-24T03:05:17;12.90;99.90
33673;DHT22;20011;51.510;9.942;2023-04-24T03:07:44;12.90;99.90
33673;DHT22;20011;51.510;9.942;2023-04-24T03:10:12;12.90;99.90
33673;DHT22;20011;51.510;9.942;2023-04-24T03:12:39;12.90;99.90
33673;DHT22;20011;51.510;9.942;2023-04-24T03:15:06;12.90;99.90
33673;DHT22;20011;51.510;9.942;2023-04-24T03:17:36;12.80;99.90
33673;DHT22;20011;51.510;9.942;2023-04-24T03:20:04;12.90;99.90
33673;DHT22;20011;51.510;9.942;2023-04-24T03:22:32;12.80;99.90
33673;DHT22;20011;51.510;9.942;2023-04-24T03:25:02;12.80;99.90
33673;DHT22;20011;51.510;9.942;2023-04-24T03:27:29;12.80;99.90
33673;DHT22;20011;51.510;9.942;2023-04-24T03:30:02;12.80;99.90
33673;DHT22;20011;51.510;9.942;2023-04-24T03:32:39;12.80;99.90
33673;DHT22;20011;51.510;9.942;2023-04-24T03:35:09;12.80;99.90
33673;DHT22;20011;51.510;9.942;2023-04-24T03:37:36;12.80;99.90
33673;DHT22;20011;51.510;9.942;2023-04-24T03:43:18;12.80;99.90
33673;DHT22;20011;51.510;9.942;2023-04-24T03:45:46;12.80;99.90
33673;DHT22;20011;51.510;9.942;2023-04-24T03:48:13;12.70;99.90
33673;DHT22;20011;51.510;9.942;2023-04-24T03:50:40;12.80;99.90
33673;DHT22;20011;51.510;9.942;2023-04-24T03:53:10;12.70;99.90
33673;DHT22;20011;51.510;9.942;2023-04-24T03:55:40;12.80;99.90
33673;DHT22;20011;51.510;9.942;2023-04-24T03:58:08;12.80;99.90
33673;DHT22;20011;51.510;9.942;2023-04-24T04:00:35;12.80;99.90
33673;DHT22;20011;51.510;9.942;2023-04-24T04:03:40;12.70;99.90
33673;DHT22;20011;51.510;9.942;2023-04-24T04:06:08;12.80;99.90
33673;DHT22;20011;51.510;9.942;2023-04-24T04:08:35;12.80;99.90
33673;DHT22;20011;51.510;9.942;2023-04-24T04:11:02;12.70;99.90
33673;DHT22;20011;51.510;9.942;2023-04-24T04:13:31;12.70;99.90
33673;DHT22;20011;51.510;9.942;2023-04-24T04:15:59;12.70;99.90
33673;DHT22;20011;51.510;9.942;2023-04-24T04:18:26;12.70;99.90
33673;DHT22;20011;51.510;9.942;2023-04-24T04:20:53;12.70;99.90
33673;DHT22;20011;51.510;9.942;2023-04-24T04:23:20;12.70;99.90
33673;DHT22;20011;51.510;9.942;2023-04-24T04:26:06;12.70;99.90
33673;DHT22;20011;51.510;9.942;2023-04-24T04:29:00;12.60;99.90
33673;DHT22;20011;51.510;9.942;2023-04-24T04:31:31;12.60;99.90
33673;DHT22;20011;51.510;9.942;2023-04-24T04:34:05;12.60;99.90
33673;DHT22;20011;51.510;9.942;2023-04-24T04:36:33;12.60;99.90
33673;DHT22;20011;51.510;9.942;2023-04-24T04:39:16;12.60;99.90
33673;DHT22;20011;51.510;9.942;2023-04-24T04:41:54;12.60;99.90
33673;DHT22;20011;51.510;9.942;2023-04-24T04:44:26;12.60;99.90
33673;DHT22;20011;51.510;9.942;2023-04-24T04:46:57;12.60;99.90
33673;DHT22;20011;51.510;9.942;2023-04-24T04:49:28;12.60;99.90
33673;DHT22;20011;51.510;9.942;2023-04-24T04:51:56;12.60;99.90
33673;DHT22;20011;51.510;9.942;2023-04-24T04:54:25;12.60;99.90
33673;DHT22;20011;51.510;9.942;2023-04-24T04:56:52;12.60;99.90
33673;DHT22;20011;51.510;9.942;2023-04-24T04:59:20;12.70;99.90
33673;DHT22;20011;51.510;9.942;2023-04-24T05:01:52;12.70;99.90
33673;DHT22;20011;51.510;9.942;2023-04-24T05:04:19;12.70;99.90
33673;DHT22;20011;51.510;9.942;2023-04-24T05:06:47;12.70;99.90
33673;DHT22;20011;51.510;9.942;2023-04-24T05:09:14;12.70;99.90
33673;DHT22;20011;51.510;9.942;2023-04-24T05:11:52;12.70;99.90
33673;DHT22;20011;51.510;9.942;2023-04-24T05:14:20;12.70;99.90
33673;DHT22;20011;51.510;9.942;2023-04-24T05:16:48;12.80;99.90
33673;DHT22;20011;51.510;9.942;2023-04-24T05:19:19;12.80;99.90
33673;DHT22;20011;51.510;9.942;2023-04-24T05:21:46;12.80;99.90
33673;DHT22;20011;51.510;9.942;2023-04-24T05:24:14;12.80;99.90
33673;DHT22;20011;51.510;9.942;2023-04-24T05:27:00;12.80;99.90
33673;DHT22;20011;51.510;9.942;2023-04-24T05:29:33;12.80;99.90
33673;DHT22;20011;51.510;9.942;2023-04-24T05:32:03;12.90;99.90
33673;DHT22;20011;51.510;9.942;2023-04-24T05:34:31;12.90;99.90
33673;DHT22;20011;51.510;9.942;2023-04-24T05:36:58;12.90;99.90
33673;DHT22;20011;51.510;9.942;2023-04-24T05:39:25;12.90;99.90
33673;DHT22;20011;51.510;9.942;2023-04-24T05:41:53;13.10;99.90
33673;DHT22;20011;51.510;9.942;2023-04-24T05:44:20;13.20;99.90
33673;DHT22;20011;51.510;9.942;2023-04-24T05:46:47;13.20;99.90
33673;DHT22;20011;51.510;9.942;2023-04-24T05:49:15;13.30;99.90
33673;DHT22;20011;51.510;9.942;2023-04-24T05:51:42;13.40;99.90
33673;DHT22;20011;51.510;9.942;2023-04-24T05:54:09;13.50;99.90
33673;DHT22;20011;51.510;9.942;2023-04-24T05:56:39;13.50;99.90
33673;DHT22;20011;51.510;9.942;2023-04-24T06:01:38;13.50;99.90
33673;DHT22;20011;51.510;9.942;2023-04-24T06:04:12;13.40;99.90
33673;DHT22;20011;51.510;9.942;2023-04-24T06:06:41;13.40;99.90
33673;DHT22;20011;51.510;9.942;2023-04-24T06:09:08;13.40;99.90
33673;DHT22;20011;51.510;9.942;2023-04-24T06:11:36;13.40;99.90
33673;DHT22;20011;51.510;9.942;2023-04-24T06:14:03;13.40;99.90
33673;DHT22;20011;51.510;9.942;2023-04-24T06:16:41;13.40;99.90
33673;DHT22;20011;51.510;9.942;2023-04-24T06:19:21;13.40;99.90
33673;DHT22;20011;51.510;9.942;2023-04-24T06:21:48;13.40;99.90
33673;DHT22;20011;51.510;9.942;2023-04-24T06:24:15;13.30;99.90
33673;DHT22;20011;51.510;9.942;2023-04-24T06:26:43;13.30;99.90
33673;DHT22;20011;51.510;9.942;2023-04-24T06:29:10;13.40;99.90
33673;DHT22;20011;51.510;9.942;2023-04-24T06:31:37;13.40;99.90
33673;DHT22;20011;51.510;9.942;2023-04-24T06:34:04;13.40;99.90
33673;DHT22;20011;51.510;9.942;2023-04-24T06:36:31;13.40;99.90
33673;DHT22;20011;51.510;9.942;2023-04-24T06:38:59;13.40;99.90
33673;DHT22;20011;51.510;9.942;2023-04-24T06:41:26;13.30;99.90
33673;DHT22;20011;51.510;9.942;2023-04-24T06:43:53;13.30;99.90
33673;DHT22;20011;51.510;9.942;2023-04-24T06:46:19;13.30;99.90
33673;DHT22;20011;51.510;9.942;2023-04-24T06:48:49;13.30;99.90
33673;DHT22;20011;51.510;9.942;2023-04-24T06:51:16;13.30;99.90
33673;DHT22;20011;51.510;9.942;2023-04-24T06:53:44;13.20;99.90
33673;DHT22;20011;51.510;9.942;2023-04-24T06:56:14;13.20;99.90
33673;DHT22;20011;51.510;9.942;2023-04-24T06:58:42;13.10;99.90
33673;DHT22;20011;51.510;9.942;2023-04-24T07:01:09;13.10;99.90
33673;DHT22;20011;51.510;9.942;2023-04-24T07:03:36;13.10;99.90
33673;DHT22;20011;51.510;9.942;2023-04-24T07:06:04;13.10;99.90
33673;DHT22;20011;51.510;9.942;2023-04-24T07:08:31;13.00;99.90
33673;DHT22;20011;51.510;9.942;2023-04-24T07:11:00;12.90;99.90
33673;DHT22;20011;51.510;9.942;2023-04-24T07:13:27;12.90;99.90
33673;DHT22;20011;51.510;9.942;2023-04-24T07:15:54;12.80;99.90
33673;DHT22;20011;51.510;9.942;2023-04-24T07:18:22;12.80;99.90
33673;DHT22;20011;51.510;9.942;2023-04-24T07:20:49;12.70;99.90
33673;DHT22;20011;51.510;9.942;2023-04-24T07:23:17;12.70;99.90
33673;DHT22;20011;51.510;9.942;2023-04-24T07:25:44;12.70;99.90
33673;DHT22;20011;51.510;9.942;2023-04-24T07:28:11;12.70;99.90
33673;DHT22;20011;51.510;9.942;2023-04-24T07:30:38;12.70;99.90
33673;DHT22;20011;51.510;9.942;2023-04-24T07:33:05;12.80;99.90
33673;DHT22;20011;51.510;9.942;2023-04-24T07:35:33;12.80;99.90
33673;DHT22;20011;51.510;9.942;2023-04-24T07:38:01;12.80;99.90
33673;DHT22;20011;51.510;9.942;2023-04-24T07:40:28;12.90;99.90
33673;DHT22;20011;51.510;9.942;2023-04-24T07:42:55;12.90;99.90
33673;DHT22;20011;51.510;9.942;2023-04-24T07:45:22;12.90;99.90
33673;DHT22;20011;51.510;9.942;2023-04-24T07:47:50;12.90;99.90
33673;DHT22;20011;51.510;9.942;2023-04-24T07:50:17;12.90;99.90
33673;DHT22;20011;51.510;9.942;2023-04-24T07:52:44;12.80;99.90
33673;DHT22;20011;51.510;9.942;2023-04-24T07:55:11;12.80;99.90
33673;DHT22;20011;51.510;9.942;2023-04-24T07:57:38;12.80;99.90
33673;DHT22;20011;51.510;9.942;2023-04-24T08:00:05;12.90;99.90
33673;DHT22;20011;51.510;9.942;2023-04-24T08:02:37;12.90;99.90
33673;DHT22;20011;51.510;9.942;2023-04-24T08:05:05;12.90;99.90
33673;DHT22;20011;51.510;9.942;2023-04-24T08:07:32;12.90;99.90
33673;DHT22;20011;51.510;9.942;2023-04-24T08:09:59;12.90;99.90
33673;DHT22;20011;51.510;9.942;2023-04-24T08:12:27;12.90;99.90
33673;DHT22;20011;51.510;9.942;2023-04-24T08:14:54;13.10;99.90
33673;DHT22;20011;51.510;9.942;2023-04-24T08:17:22;13.20;99.90
33673;DHT22;20011;51.510;9.942;2023-04-24T08:19:49;13.20;99.90
33673;DHT22;20011;51.510;9.942;2023-04-24T08:22:17;13.20;99.90
33673;DHT22;20011;51.510;9.942;2023-04-24T08:24:44;13.30;99.90
33673;DHT22;20011;51.510;9.942;2023-04-24T08:27:11;13.20;99.90
33673;DHT22;20011;51.510;9.942;2023-04-24T08:29:38;13.20;99.90
33673;DHT22;20011;51.510;9.942;2023-04-24T08:32:05;13.30;99.90
33673;DHT22;20011;51.510;9.942;2023-04-24T08:34:32;13.30;99.90
33673;DHT22;20011;51.510;9.942;2023-04-24T08:36:59;13.40;99.90
33673;DHT22;20011;51.510;9.942;2023-04-24T08:39:26;13.40;99.90
33673;DHT22;20011;51.510;9.942;2023-04-24T08:41:53;13.40;99.50
33673;DHT22;20011;51.510;9.942;2023-04-24T08:44:20;13.40;98.60
33673;DHT22;20011;51.510;9.942;2023-04-24T08:46:48;13.40;98.10
33673;DHT22;20011;51.510;9.942;2023-04-24T08:49:17;13.30;98.20
33673;DHT22;20011;51.510;9.942;2023-04-24T08:51:45;13.30;98.80
33673;DHT22;20011;51.510;9.942;2023-04-24T08:54:14;13.30;99.40
33673;DHT22;20011;51.510;9.942;2023-04-24T08:56:44;13.30;99.10
33673;DHT22;20011;51.510;9.942;2023-04-24T08:59:11;13.40;98.20
33673;DHT22;20011;51.510;9.942;2023-04-24T09:01:40;13.40;97.10
33673;DHT22;20011;51.510;9.942;2023-04-24T09:04:09;13.40;96.70
33673;DHT22;20011;51.510;9.942;2023-04-24T09:06:40;13.40;97.50
33673;DHT22;20011;51.510;9.942;2023-04-24T09:09:07;13.40;97.80
33673;DHT22;20011;51.510;9.942;2023-04-24T09:11:34;13.50;96.70
33673;DHT22;20011;51.510;9.942;2023-04-24T09:14:02;13.50;97.40
33673;DHT22;20011;51.510;9.942;2023-04-24T09:16:30;13.50;97.30
33673;DHT22;20011;51.510;9.942;2023-04-24T09:19:02;13.50;96.70
33673;DHT22;20011;51.510;9.942;2023-04-24T09:21:34;13.50;96.30
33673;DHT22;20011;51.510;9.942;2023-04-24T09:24:07;13.50;96.80
33673;DHT22;20011;51.510;9.942;2023-04-24T09:26:37;13.50;97.10
33673;DHT22;20011;51.510;9.942;2023-04-24T09:29:04;13.50;97.70
33673;DHT22;20011;51.510;9.942;2023-04-24T09:31:31;13.50;97.50
33673;DHT22;20011;51.510;9.942;2023-04-24T09:34:03;13.50;97.00
33673;DHT22;20011;51.510;9.942;2023-04-24T09:36:35;13.50;97.10
33673;DHT22;20011;51.510;9.942;2023-04-24T09:39:12;13.40;97.20
33673;DHT22;20011;51.510;9.942;2023-04-24T09:41:54;13.40;97.00
33673;DHT22;20011;51.510;9.942;2023-04-24T09:44:26;13.40;96.90
33673;DHT22;20011;51.510;9.942;2023-04-24T09:46:55;13.40;97.00
33673;DHT22;20011;51.510;9.942;2023-04-24T09:49:26;13.40;97.20
33673;DHT22;20011;51.510;9.942;2023-04-24T09:52:04;13.40;98.00
33673;DHT22;20011;51.510;9.942;2023-04-24T09:54:31;13.40;97.70
33673;DHT22;20011;51.510;9.942;2023-04-24T09:56:59;13.30;97.30
33673;DHT22;20011;51.510;9.942;2023-04-24T09:59:27;13.30;97.40
33673;DHT22;20011;51.510;9.942;2023-04-24T10:04:23;13.40;97.90
33673;DHT22;20011;51.510;9.942;2023-04-24T10:06:53;13.40;98.20
33673;DHT22;20011;51.510;9.942;2023-04-24T10:09:22;13.40;98.50
33673;DHT22;20011;51.510;9.942;2023-04-24T10:11:51;13.40;98.80
33673;DHT22;20011;51.510;9.942;2023-04-24T10:14:19;13.50;99.90
33673;DHT22;20011;51.510;9.942;2023-04-24T10:16:48;13.60;98.90
33673;DHT22;20011;51.510;9.942;2023-04-24T10:19:16;13.60;99.90
33673;DHT22;20011;51.510;9.942;2023-04-24T10:21:45;13.60;98.70
33673;DHT22;20011;51.510;9.942;2023-04-24T10:24:17;13.70;99.90
33673;DHT22;20011;51.510;9.942;2023-04-24T10:26:45;13.80;99.30
33673;DHT22;20011;51.510;9.942;2023-04-24T10:29:14;13.80;99.50
33673;DHT22;20011;51.510;9.942;2023-04-24T10:31:42;13.80;99.70
33673;DHT22;20011;51.510;9.942;2023-04-24T10:34:13;13.90;99.90
33673;DHT22;20011;51.510;9.942;2023-04-24T10:36:53;13.90;98.90
33673;DHT22;20011;51.510;9.942;2023-04-24T10:39:24;14.10;99.90
33673;DHT22;20011;51.510;9.942;2023-04-24T10:41:54;14.10;99.90
33673;DHT22;20011;51.510;9.942;2023-04-24T10:44:24;14.20;99.90
33673;DHT22;20011;51.510;9.942;2023-04-24T10:46:55;14.30;99.90
33673;DHT22;20011;51.510;9.942;2023-04-24T10:49:30;14.40;99.90
33673;DHT22;20011;51.510;9.942;2023-04-24T10:52:02;14.50;99.90
33673;DHT22;20011;51.510;9.942;2023-04-24T10:54:45;14.50;99.90
33673;DHT22;20011;51.510;9.942;2023-04-24T11:02:37;14.80;99.90
33673;DHT22;20011;51.510;9.942;2023-04-24T11:05:05;14.80;99.90
33673;DHT22;20011;51.510;9.942;2023-04-24T11:13:25;14.80;99.90
33673;DHT22;20011;51.510;9.942;2023-04-24T11:18:42;14.80;99.90
33673;DHT22;20011;51.510;9.942;2023-04-24T11:21:12;14.90;99.90
33673;DHT22;20011;51.510;9.942;2023-04-24T11:23:40;14.90;99.90
33673;DHT22;20011;51.510;9.942;2023-04-24T11:26:34;14.90;99.90
33673;DHT22;20011;51.510;9.942;2023-04-24T11:29:07;14.90;99.90
33673;DHT22;20011;51.510;9.942;2023-04-24T11:31:39;14.90;99.90
33673;DHT22;20011;51.510;9.942;2023-04-24T11:34:12;14.90;99.90
33673;DHT22;20011;51.510;9.942;2023-04-24T11:36:44;15.00;99.90
33673;DHT22;20011;51.510;9.942;2023-04-24T11:39:12;14.90;99.90
33673;DHT22;20011;51.510;9.942;2023-04-24T11:41:39;14.80;99.90
33673;DHT22;20011;51.510;9.942;2023-04-24T11:44:08;14.70;99.90
33673;DHT22;20011;51.510;9.942;2023-04-24T11:46:35;14.70;99.90
33673;DHT22;20011;51.510;9.942;2023-04-24T11:49:04;14.60;99.90
33673;DHT22;20011;51.510;9.942;2023-04-24T11:51:32;14.40;99.90
33673;DHT22;20011;51.510;9.942;2023-04-24T11:54:13;14.30;99.90
33673;DHT22;20011;51.510;9.942;2023-04-24T11:56:46;14.20;99.90
33673;DHT22;20011;51.510;9.942;2023-04-24T11:59:14;14.20;99.90
33673;DHT22;20011;51.510;9.942;2023-04-24T12:01:45;14.20;99.90
33673;DHT22;20011;51.510;9.942;2023-04-24T12:04:13;14.30;99.90
33673;DHT22;20011;51.510;9.942;2023-04-24T12:06:59;14.40;99.90
33673;DHT22;20011;51.510;9.942;2023-04-24T12:09:26;14.40;99.90
33673;DHT22;20011;51.510;9.942;2023-04-24T12:11:56;14.30;99.90
33673;DHT22;20011;51.510;9.942;2023-04-24T12:14:24;14.20;99.90
33673;DHT22;20011;51.510;9.942;2023-04-24T12:16:51;14.20;99.90
33673;DHT22;20011;51.510;9.942;2023-04-24T12:19:21;14.30;99.90
33673;DHT22;20011;51.510;9.942;2023-04-24T12:22:03;14.30;99.90
33673;DHT22;20011;51.510;9.942;2023-04-24T12:24:31;14.40;99.90
33673;DHT22;20011;51.510;9.942;2023-04-24T12:26:59;14.30;99.90
33673;DHT22;20011;51.510;9.942;2023-04-24T12:29:28;14.20;99.90
33673;DHT22;20011;51.510;9.942;2023-04-24T12:31:55;14.10;99.70
33673;DHT22;20011;51.510;9.942;2023-04-24T12:34:23;14.00;99.80
33673;DHT22;20011;51.510;9.942;2023-04-24T12:36:51;14.00;99.20
33673;DHT22;20011;51.510;9.942;2023-04-24T12:39:19;13.90;99.90
33673;DHT22;20011;51.510;9.942;2023-04-24T12:41:56;14.00;99.40
33673;DHT22;20011;51.510;9.942;2023-04-24T12:44:33;13.90;99.60
33673;DHT22;20011;51.510;9.942;2023-04-24T12:47:01;13.80;98.40
33673;DHT22;20011;51.510;9.942;2023-04-24T12:49:30;13.70;97.50
33673;DHT22;20011;51.510;9.942;2023-04-24T12:51:57;13.70;98.40
33673;DHT22;20011;51.510;9.942;2023-04-24T12:54:24;13.70;97.40
33673;DHT22;20011;51.510;9.942;2023-04-24T12:56:51;13.60;99.80
33673;DHT22;20011;51.510;9.942;2023-04-24T12:59:18;13.50;98.90
33673;DHT22;20011;51.510;9.942;2023-04-24T13:01:45;13.60;98.90
33673;DHT22;20011;51.510;9.942;2023-04-24T13:04:12;13.50;99.20
33673;DHT22;20011;51.510;9.942;2023-04-24T13:06:39;13.50;99.70
33673;DHT22;20011;51.510;9.942;2023-04-24T13:09:06;13.50;99.10
33673;DHT22;20011;51.510;9.942;2023-04-24T13:11:32;13.40;98.80
33673;DHT22;20011;51.510;9.942;2023-04-24T13:13:59;13.40;98.80
33673;DHT22;20011;51.510;9.942;2023-04-24T13:16:26;13.40;99.10
33673;DHT22;20011;51.510;9.942;2023-04-24T13:18:53;13.40;99.50
33673;DHT22;20011;51.510;9.942;2023-04-24T13:21:20;13.40;99.70
33673;DHT22;20011;51.510;9.942;2023-04-24T13:23:47;13.50;99.90
33673;DHT22;20011;51.510;9.942;2023-04-24T13:26:14;13.50;99.90
33673;DHT22;20011;51.510;9.942;2023-04-24T13:28:41;13.40;99.90
33673;DHT22;20011;51.510;9.942;2023-04-24T13:31:08;13.50;99.90
33673;DHT22;20011;51.510;9.942;2023-04-24T13:33:34;13.50;99.90
33673;DHT22;20011;51.510;9.942;2023-04-24T13:36:01;13.40;99.90
33673;DHT22;20011;51.510;9.942;2023-04-24T13:38:28;13.30;99.90
33673;DHT22;20011;51.510;9.942;2023-04-24T13:40:55;13.30;99.90
33673;DHT22;20011;51.510;9.942;2023-04-24T13:43:22;13.30;99.90
33673;DHT22;20011;51.510;9.942;2023-04-24T13:45:49;13.30;99.90
33673;DHT22;20011;51.510;9.942;2023-04-24T13:48:16;13.30;99.90
33673;DHT22;20011;51.510;9.942;2023-04-24T13:50:44;13.30;99.90
33673;DHT22;20011;51.510;9.942;2023-04-24T13:53:11;13.30;99.90
33673;DHT22;20011;51.510;9.942;2023-04-24T13:55:37;13.30;99.90
33673;DHT22;20011;51.510;9.942;2023-04-24T13:58:05;13.30;99.90
33673;DHT22;20011;51.510;9.942;2023-04-24T14:00:33;13.40;99.90
33673;DHT22;20011;51.510;9.942;2023-04-24T14:03:00;13.40;99.90
33673;DHT22;20011;51.510;9.942;2023-04-24T14:05:27;13.40;99.90
33673;DHT22;20011;51.510;9.942;2023-04-24T14:07:54;13.40;99.90
33673;DHT22;20011;51.510;9.942;2023-04-24T14:10:21;13.40;99.90
33673;DHT22;20011;51.510;9.942;2023-04-24T14:12:48;13.40;99.90
33673;DHT22;20011;51.510;9.942;2023-04-24T14:15:16;13.40;99.90
33673;DHT22;20011;51.510;9.942;2023-04-24T14:17:43;13.40;99.90
33673;DHT22;20011;51.510;9.942;2023-04-24T14:20:11;13.40;99.90
33673;DHT22;20011;51.510;9.942;2023-04-24T14:22:38;13.40;99.90
33673;DHT22;20011;51.510;9.942;2023-04-24T14:25:06;13.30;99.90
33673;DHT22;20011;51.510;9.942;2023-04-24T14:27:33;13.50;99.90
33673;DHT22;20011;51.510;9.942;2023-04-24T14:30:01;13.60;99.90
33673;DHT22;20011;51.510;9.942;2023-04-24T14:32:28;13.70;99.90
33673;DHT22;20011;51.510;9.942;2023-04-24T14:34:55;13.80;99.90
33673;DHT22;20011;51.510;9.942;2023-04-24T14:37:22;13.70;99.90
33673;DHT22;20011;51.510;9.942;2023-04-24T14:39:49;13.70;99.90
33673;DHT22;20011;51.510;9.942;2023-04-24T14:45:03;13.80;99.90
33673;DHT22;20011;51.510;9.942;2023-04-24T14:47:30;13.80;99.90
33673;DHT22;20011;51.510;9.942;2023-04-24T14:49:58;13.90;99.90
33673;DHT22;20011;51.510;9.942;2023-04-24T14:54:52;13.80;99.90
33673;DHT22;20011;51.510;9.942;2023-04-24T14:59:46;13.80;99.90
33673;DHT22;20011;51.510;9.942;2023-04-24T15:02:13;13.80;99.90
33673;DHT22;20011;51.510;9.942;2023-04-24T15:04:43;13.70;99.90
33673;DHT22;20011;51.510;9.942;2023-04-24T15:07:10;13.60;99.90
33673;DHT22;20011;51.510;9.942;2023-04-24T15:09:37;13.40;99.90
33673;DHT22;20011;51.510;9.942;2023-04-24T15:12:04;13.40;99.90
33673;DHT22;20011;51.510;9.942;2023-04-24T15:14:31;13.30;99.90
33673;DHT22;20011;51.510;9.942;2023-04-24T15:16:58;13.20;99.90
33673;DHT22;20011;51.510;9.942;2023-04-24T15:21:53;13.00;99.90
33673;DHT22;20011;51.510;9.942;2023-04-24T15:24:20;13.00;99.90
33673;DHT22;20011;51.510;9.942;2023-04-24T15:26:47;12.90;99.90
33673;DHT22;20011;51.510;9.942;2023-04-24T15:29:13;12.90;99.90
33673;DHT22;20011;51.510;9.942;2023-04-24T15:31:40;12.80;99.90
33673;DHT22;20011;51.510;9.942;2023-04-24T15:34:07;12.80;99.90
33673;DHT22;20011;51.510;9.942;2023-04-24T15:36:35;12.70;99.90
33673;DHT22;20011;51.510;9.942;2023-04-24T15:39:02;12.70;99.90
33673;DHT22;20011;51.510;9.942;2023-04-24T15:41:32;12.60;99.90
33673;DHT22;20011;51.510;9.942;2023-04-24T15:43:59;12.70;99.90
33673;DHT22;20011;51.510;9.942;2023-04-24T15:46:26;12.70;99.90
33673;DHT22;20011;51.510;9.942;2023-04-24T15:48:53;12.30;99.90
33673;DHT22;20011;51.510;9.942;2023-04-24T15:51:20;12.70;99.90
33673;DHT22;20011;51.510;9.942;2023-04-24T15:53:47;12.80;99.90
33673;DHT22;20011;51.510;9.942;2023-04-24T15:56:15;12.80;99.90
33673;DHT22;20011;51.510;9.942;2023-04-24T15:58:42;12.90;99.90
33673;DHT22;20011;51.510;9.942;2023-04-24T16:03:36;12.90;99.90
33673;DHT22;20011;51.510;9.942;2023-04-24T16:06:03;12.90;99.90
33673;DHT22;20011;51.510;9.942;2023-04-24T16:08:30;12.80;99.90
33673;DHT22;20011;51.510;9.942;2023-04-24T16:10:57;12.80;99.90
33673;DHT22;20011;51.510;9.942;2023-04-24T16:13:24;12.80;99.90
33673;DHT22;20011;51.510;9.942;2023-04-24T16:15:51;12.70;99.90
33673;DHT22;20011;51.510;9.942;2023-04-24T16:20:45;12.70;99.90
33673;DHT22;20011;51.510;9.942;2023-04-24T16:25:41;12.60;99.90
33673;DHT22;20011;51.510;9.942;2023-04-24T16:28:08;12.60;99.90
33673;DHT22;20011;51.510;9.942;2023-04-24T16:30:35;12.60;99.90
33673;DHT22;20011;51.510;9.942;2023-04-24T16:33:02;12.60;99.90